Time;durP1;ratioP1;P1;durP2;ratioP2;P2;SDS_P1;SDS_P2;PMS_P1;PMS_P2;Temp;Humidity;BMP_temperature;BMP_pressure;BME280_temperature;BME280_humidity;BME280_pressure;Samples;Min_cycle;Max_cycle;Signal;HPM_P1;HPM_P2
2023/05/17 00:00:42;;;;;;;;;;;8.60;99.90;;;;;;8198768;28;19942;-78
2023/05/17 00:04:44;;;;;;;;;;;8.50;99.90;;;;;;8177033;28;19919;-77
2023/05/17 00:08:44;;;;;;;;;;;8.20;99.90;;;;;;8203848;28;19981;-77
2023/05/17 00:12:46;;;;;;;;;;;8.50;99.90;;;;;;8206116;28;21194;-78
2023/05/17 00:16:47;;;;;;;;;;;8.80;99.90;;;;;;8189145;28;19911;-77
2023/05/17 00:20:47;;;;;;;;;;;8.50;99.90;;;;;;8206610;28;20442;-77
2023/05/17 00:24:48;;;;;;;;;;;8.40;99.90;;;;;;8209316;28;19921;-77
2023/05/17 00:28:48;;;;;;;;;;;8.40;99.90;;;;;;8204606;28;19914;-77
2023/05/17 00:32:49;;;;;;;;;;;8.30;99.90;;;;;;8206076;28;19919;-78
2023/05/17 00:36:49;;;;;;;;;;;8.30;99.90;;;;;;8205628;28;20026;-78
2023/05/17 00:40:50;;;;;;;;;;;8.30;99.90;;;;;;8227782;28;19924;-77
2023/05/17 00:44:50;;;;;;;;;;;8.30;99.90;;;;;;8204112;28;19918;-78
2023/05/17 00:48:51;;;;;;;;;;;8.30;99.90;;;;;;8206205;28;20029;-78
2023/05/17 00:52:51;;;;;;;;;;;8.20;99.90;;;;;;8206873;28;19910;-78
2023/05/17 00:56:52;;;;;;;;;;;8.30;99.90;;;;;;8206277;28;19922;-78
2023/05/17 01:00:52;;;;;;;;;;;8.20;99.90;;;;;;8203937;28;19914;-78
2023/05/17 01:04:53;;;;;;;;;;;8.20;99.90;;;;;;8209375;28;19918;-77
2023/05/17 01:08:54;;;;;;;;;;;8.20;99.90;;;;;;8205850;28;19914;-78
2023/05/17 01:13:04;;;;;;;;;;;8.20;99.90;;;;;;8203667;28;19910;-77
2023/05/17 01:17:10;;;;;;;;;;;8.20;99.90;;;;;;8201547;28;19918;-78
2023/05/17 01:21:22;;;;;;;;;;;8.10;99.90;;;;;;8205822;28;20426;-78
2023/05/17 01:25:42;;;;;;;;;;;8.10;99.90;;;;;;8206732;28;20006;-79
2023/05/17 01:29:43;;;;;;;;;;;8.00;99.90;;;;;;8205882;28;19923;-78
2023/05/17 01:33:43;;;;;;;;;;;8.10;99.90;;;;;;8202978;28;19914;-77
2023/05/17 01:37:44;;;;;;;;;;;8.20;99.90;;;;;;8188750;28;19969;-78
2023/05/17 01:42:10;;;;;;;;;;;8.00;99.90;;;;;;8207244;28;19928;-77
2023/05/17 01:46:15;;;;;;;;;;;8.00;99.90;;;;;;8180553;28;19921;-77
2023/05/17 01:50:16;;;;;;;;;;;7.90;99.90;;;;;;8205902;28;19982;-77
2023/05/17 01:54:21;;;;;;;;;;;7.90;99.90;;;;;;8203750;28;19922;-78
2023/05/17 01:58:24;;;;;;;;;;;7.90;99.90;;;;;;8209169;28;19924;-77
2023/05/17 02:02:24;;;;;;;;;;;8.00;99.90;;;;;;8201706;28;19922;-77
2023/05/17 02:06:25;;;;;;;;;;;7.90;99.90;;;;;;8219167;28;20005;-77
2023/05/17 02:10:25;;;;;;;;;;;8.00;99.90;;;;;;8202420;28;20393;-77
2023/05/17 02:14:25;;;;;;;;;;;7.80;99.90;;;;;;8202332;28;20100;-78
2023/05/17 02:18:26;;;;;;;;;;;7.80;99.90;;;;;;8202805;28;20272;-78
2023/05/17 02:22:26;;;;;;;;;;;7.70;99.90;;;;;;8202742;28;20398;-78
2023/05/17 02:26:27;;;;;;;;;;;7.70;99.90;;;;;;8206992;28;20479;-77
2023/05/17 02:30:27;;;;;;;;;;;7.70;99.90;;;;;;8200686;28;19919;-77
2023/05/17 02:34:28;;;;;;;;;;;7.60;99.90;;;;;;8193193;28;20449;-77
2023/05/17 02:38:28;;;;;;;;;;;7.60;99.90;;;;;;8206982;28;19942;-77
2023/05/17 02:42:29;;;;;;;;;;;7.50;99.90;;;;;;8206989;28;19951;-77
2023/05/17 02:46:29;;;;;;;;;;;7.50;99.90;;;;;;8202281;28;19911;-77
2023/05/17 02:50:29;;;;;;;;;;;7.50;99.90;;;;;;8201466;28;19938;-78
2023/05/17 02:54:30;;;;;;;;;;;7.50;99.90;;;;;;8199543;28;19910;-77
2023/05/17 02:58:30;;;;;;;;;;;7.40;99.90;;;;;;8200463;28;19946;-78
2023/05/17 03:02:31;;;;;;;;;;;7.50;99.90;;;;;;8195495;28;20306;-77
2023/05/17 03:06:31;;;;;;;;;;;7.30;99.90;;;;;;8285158;23;20016;-79
2023/05/17 03:10:32;;;;;;;;;;;7.40;99.90;;;;;;8234687;28;19948;-79
2023/05/17 03:14:32;;;;;;;;;;;7.50;99.90;;;;;;8236657;28;19922;-79
2023/05/17 03:18:33;;;;;;;;;;;7.50;99.90;;;;;;8222144;28;20547;-79
2023/05/17 03:22:33;;;;;;;;;;;7.40;99.90;;;;;;8227573;28;19929;-80
2023/05/17 03:26:33;;;;;;;;;;;7.40;99.90;;;;;;8238769;28;20342;-79
2023/05/17 03:30:34;;;;;;;;;;;7.40;99.90;;;;;;8224001;28;19937;-80
2023/05/17 03:34:34;;;;;;;;;;;7.30;99.90;;;;;;8218377;28;20500;-78
2023/05/17 03:38:35;;;;;;;;;;;7.30;99.90;;;;;;8218662;28;19925;-80
2023/05/17 03:42:36;;;;;;;;;;;7.30;99.90;;;;;;8223873;28;19918;-80
2023/05/17 03:46:36;;;;;;;;;;;7.20;99.90;;;;;;8230301;28;20379;-79
2023/05/17 03:50:37;;;;;;;;;;;7.20;99.90;;;;;;8224185;28;19970;-79
2023/05/17 03:54:38;;;;;;;;;;;7.20;99.90;;;;;;8220106;28;19910;-79
2023/05/17 03:58:38;;;;;;;;;;;7.10;99.90;;;;;;8226742;28;20358;-79
2023/05/17 04:02:39;;;;;;;;;;;7.10;99.90;;;;;;8224502;28;19914;-80
2023/05/17 04:06:40;;;;;;;;;;;7.20;99.90;;;;;;8218505;28;20374;-79
2023/05/17 04:10:41;;;;;;;;;;;7.20;99.90;;;;;;8229989;28;20301;-79
2023/05/17 04:14:41;;;;;;;;;;;7.20;99.90;;;;;;8226255;28;19915;-79
2023/05/17 04:18:42;;;;;;;;;;;7.30;99.90;;;;;;8213381;28;19910;-78
2023/05/17 04:22:42;;;;;;;;;;;7.30;99.90;;;;;;8226883;28;19926;-80
2023/05/17 04:26:43;;;;;;;;;;;7.20;99.90;;;;;;8227043;28;19976;-79
2023/05/17 04:30:45;;;;;;;;;;;7.30;99.90;;;;;;8225554;28;19922;-79
2023/05/17 04:34:46;;;;;;;;;;;7.20;99.90;;;;;;8224660;28;20367;-80
2023/05/17 04:38:47;;;;;;;;;;;7.20;99.90;;;;;;8220000;28;19957;-81
2023/05/17 04:42:47;;;;;;;;;;;7.30;99.90;;;;;;8241117;28;19918;-81
2023/05/17 04:46:49;;;;;;;;;;;7.30;99.90;;;;;;8215957;28;19914;-81
2023/05/17 04:50:49;;;;;;;;;;;7.30;99.90;;;;;;8218390;28;20216;-81
2023/05/17 04:54:50;;;;;;;;;;;7.20;99.90;;;;;;8232885;28;20182;-81
2023/05/17 04:58:51;;;;;;;;;;;7.20;99.90;;;;;;8230546;28;20441;-81
2023/05/17 05:02:51;;;;;;;;;;;7.30;99.90;;;;;;8232085;28;19918;-81
2023/05/17 05:06:52;;;;;;;;;;;7.40;99.90;;;;;;8224557;28;20121;-81
2023/05/17 05:10:52;;;;;;;;;;;7.40;99.90;;;;;;8227142;28;19914;-80
2023/05/17 05:14:53;;;;;;;;;;;7.50;99.90;;;;;;8230688;28;19915;-81
2023/05/17 05:18:54;;;;;;;;;;;7.50;99.90;;;;;;8228083;28;19918;-81
2023/05/17 05:22:56;;;;;;;;;;;7.60;99.90;;;;;;8223869;28;19929;-82
2023/05/17 05:26:56;;;;;;;;;;;7.70;99.90;;;;;;8221632;28;19914;-81
2023/05/17 05:30:58;;;;;;;;;;;7.70;99.90;;;;;;8224571;28;19915;-81
2023/05/17 05:34:58;;;;;;;;;;;7.80;99.90;;;;;;8217217;28;20425;-81
2023/05/17 05:38:59;;;;;;;;;;;7.80;99.90;;;;;;8222705;28;19918;-81
2023/05/17 05:42:59;;;;;;;;;;;8.00;99.90;;;;;;8226483;28;19922;-81
2023/05/17 05:46:59;;;;;;;;;;;8.10;99.90;;;;;;8231446;28;19921;-80
2023/05/17 05:51:00;;;;;;;;;;;8.20;99.90;;;;;;8231827;28;19961;-82
2023/05/17 05:55:00;;;;;;;;;;;8.10;99.90;;;;;;8228398;28;20367;-81
2023/05/17 05:59:01;;;;;;;;;;;8.20;99.90;;;;;;8224679;28;20001;-81
2023/05/17 06:03:01;;;;;;;;;;;8.20;99.90;;;;;;8224112;28;20294;-82
2023/05/17 06:07:02;;;;;;;;;;;8.20;99.90;;;;;;8226088;28;20741;-80
2023/05/17 06:11:02;;;;;;;;;;;8.10;99.90;;;;;;8251694;28;20012;-81
2023/05/17 06:15:03;;;;;;;;;;;8.30;99.90;;;;;;8223692;28;19915;-81
2023/05/17 06:19:03;;;;;;;;;;;8.40;99.90;;;;;;8211112;28;19945;-81
2023/05/17 06:23:04;;;;;;;;;;;8.50;99.90;;;;;;8229118;28;19952;-81
2023/05/17 06:27:06;;;;;;;;;;;8.60;99.90;;;;;;8213228;28;19966;-82
2023/05/17 06:31:06;;;;;;;;;;;8.70;99.90;;;;;;8222189;28;19922;-82
2023/05/17 06:35:07;;;;;;;;;;;9.00;99.90;;;;;;8226572;28;19917;-81
2023/05/17 06:39:07;;;;;;;;;;;9.40;99.90;;;;;;8220206;28;19977;-83
2023/05/17 06:43:08;;;;;;;;;;;9.60;99.90;;;;;;8235122;28;19980;-82
2023/05/17 06:47:08;;;;;;;;;;;9.70;99.90;;;;;;8228325;28;19918;-82
2023/05/17 06:51:09;;;;;;;;;;;9.80;99.90;;;;;;8222600;28;19964;-82
2023/05/17 06:55:09;;;;;;;;;;;10.20;99.90;;;;;;8228381;28;19914;-82
2023/05/17 06:59:10;;;;;;;;;;;10.20;99.90;;;;;;8226769;28;19926;-81
2023/05/17 07:03:10;;;;;;;;;;;10.40;99.90;;;;;;8218292;28;20037;-82
2023/05/17 07:07:10;;;;;;;;;;;10.50;99.90;;;;;;8224783;28;20326;-82
2023/05/17 07:11:11;;;;;;;;;;;10.50;99.90;;;;;;8225695;28;20383;-82
2023/05/17 07:15:11;;;;;;;;;;;10.70;99.90;;;;;;8221934;28;19918;-82
2023/05/17 07:19:12;;;;;;;;;;;11.00;99.90;;;;;;8234546;28;19921;-83
2023/05/17 07:23:12;;;;;;;;;;;11.30;99.90;;;;;;8232812;28;20295;-82
2023/05/17 07:27:13;;;;;;;;;;;11.30;99.90;;;;;;8226050;28;19953;-80
2023/05/17 07:31:13;;;;;;;;;;;11.60;99.90;;;;;;8225299;28;19914;-82
2023/05/17 07:35:14;;;;;;;;;;;11.90;99.90;;;;;;8217358;28;20199;-81
2023/05/17 07:39:14;;;;;;;;;;;12.00;99.90;;;;;;8232718;28;19914;-83
2023/05/17 07:43:15;;;;;;;;;;;11.80;99.90;;;;;;8239168;28;19921;-81
2023/05/17 07:47:15;;;;;;;;;;;11.70;99.90;;;;;;8232293;28;19958;-82
2023/05/17 07:51:16;;;;;;;;;;;11.40;99.90;;;;;;8224522;28;19949;-83
2023/05/17 07:55:16;;;;;;;;;;;11.70;99.90;;;;;;8217265;28;19972;-82
2023/05/17 07:59:17;;;;;;;;;;;12.00;99.90;;;;;;8207460;28;19914;-83
2023/05/17 08:03:17;;;;;;;;;;;11.80;99.90;;;;;;8207658;28;20004;-81
2023/05/17 08:07:18;;;;;;;;;;;11.40;99.90;;;;;;8227193;28;20307;-81
2023/05/17 08:11:18;;;;;;;;;;;11.90;99.90;;;;;;8220481;28;19925;-79
2023/05/17 08:15:19;;;;;;;;;;;12.70;99.90;;;;;;8223523;28;20295;-82
2023/05/17 08:19:19;;;;;;;;;;;12.90;99.90;;;;;;8210868;28;19922;-82
2023/05/17 08:23:20;;;;;;;;;;;12.50;99.90;;;;;;8227523;28;19914;-82
2023/05/17 08:27:20;;;;;;;;;;;12.70;99.90;;;;;;8222037;28;19914;-82
2023/05/17 08:31:20;;;;;;;;;;;13.10;99.90;;;;;;8226656;28;19918;-81
2023/05/17 08:35:21;;;;;;;;;;;12.80;99.90;;;;;;8224368;28;19910;-82
2023/05/17 08:39:22;;;;;;;;;;;12.40;99.90;;;;;;8228700;28;19918;-82
2023/05/17 08:43:23;;;;;;;;;;;12.90;99.90;;;;;;8220036;28;20272;-83
2023/05/17 08:47:25;;;;;;;;;;;13.70;99.90;;;;;;8226567;28;20277;-83
2023/05/17 08:51:25;;;;;;;;;;;13.80;99.90;;;;;;8224059;28;19915;-83
2023/05/17 08:55:28;;;;;;;;;;;12.50;99.90;;;;;;8220200;28;20418;-83
2023/05/17 08:59:32;;;;;;;;;;;11.70;99.90;;;;;;8224536;28;20442;-80
2023/05/17 09:03:33;;;;;;;;;;;12.80;99.90;;;;;;8230000;28;19930;-82
2023/05/17 09:07:34;;;;;;;;;;;11.90;99.90;;;;;;8215840;28;19994;-83
2023/05/17 09:11:35;;;;;;;;;;;11.50;99.90;;;;;;8225283;28;19914;-82
2023/05/17 09:15:36;;;;;;;;;;;11.40;99.90;;;;;;8230801;28;19921;-81
2023/05/17 09:19:42;;;;;;;;;;;12.50;99.90;;;;;;8221126;28;19914;-81
2023/05/17 09:23:42;;;;;;;;;;;12.20;99.90;;;;;;8234107;28;20492;-82
2023/05/17 09:27:42;;;;;;;;;;;12.40;99.90;;;;;;8219180;28;19990;-82
2023/05/17 09:31:43;;;;;;;;;;;12.00;99.90;;;;;;8220105;28;19961;-81
2023/05/17 09:35:44;;;;;;;;;;;12.50;99.90;;;;;;8222427;28;20155;-82
2023/05/17 09:39:46;;;;;;;;;;;13.40;99.90;;;;;;8225085;28;19969;-83
2023/05/17 09:43:46;;;;;;;;;;;12.80;99.90;;;;;;8224527;28;19918;-83
2023/05/17 09:47:47;;;;;;;;;;;12.50;99.90;;;;;;8208325;28;20410;-83
2023/05/17 09:51:48;;;;;;;;;;;13.20;99.90;;;;;;8229858;28;19973;-82
2023/05/17 09:55:51;;;;;;;;;;;13.70;99.90;;;;;;8225567;28;19965;-81
2023/05/17 09:59:54;;;;;;;;;;;12.70;99.90;;;;;;8230484;28;20049;-82
2023/05/17 10:03:55;;;;;;;;;;;12.30;99.90;;;;;;8227026;28;19922;-81
2023/05/17 10:07:56;;;;;;;;;;;11.90;99.90;;;;;;8228614;28;19940;-82
2023/05/17 10:11:56;;;;;;;;;;;11.80;99.90;;;;;;8226935;28;19923;-83
2023/05/17 10:15:59;;;;;;;;;;;13.00;99.90;;;;;;8211238;28;19925;-81
2023/05/17 10:20:00;;;;;;;;;;;13.60;99.90;;;;;;8229929;28;19922;-82
2023/05/17 10:24:01;;;;;;;;;;;13.00;99.90;;;;;;8228801;28;19922;-82
2023/05/17 10:28:05;;;;;;;;;;;13.00;99.90;;;;;;8228078;28;19914;-82
2023/05/17 10:32:09;;;;;;;;;;;12.80;99.90;;;;;;8226354;28;20256;-82
2023/05/17 10:36:12;;;;;;;;;;;13.00;99.90;;;;;;8218459;28;19914;-82
2023/05/17 10:40:13;;;;;;;;;;;14.20;99.90;;;;;;8231338;28;20005;-82
2023/05/17 10:44:14;;;;;;;;;;;15.20;99.90;;;;;;8231972;28;20310;-83
2023/05/17 10:48:16;;;;;;;;;;;15.20;99.90;;;;;;8226218;28;20375;-81
2023/05/17 10:52:17;;;;;;;;;;;15.00;99.90;;;;;;8217010;28;20491;-82
2023/05/17 10:56:20;;;;;;;;;;;14.30;99.90;;;;;;8211304;28;19952;-82
2023/05/17 11:00:26;;;;;;;;;;;14.90;99.90;;;;;;8222002;28;20001;-81
2023/05/17 11:04:32;;;;;;;;;;;13.20;99.90;;;;;;8222664;28;19918;-82
2023/05/17 11:08:32;;;;;;;;;;;14.00;99.90;;;;;;8223248;28;19914;-82
2023/05/17 11:12:42;;;;;;;;;;;14.70;99.90;;;;;;8227177;28;19921;-82
2023/05/17 11:16:43;;;;;;;;;;;14.20;99.90;;;;;;8223174;28;19914;-82
2023/05/17 11:20:43;;;;;;;;;;;14.60;99.90;;;;;;8213995;28;19947;-82
2023/05/17 11:24:46;;;;;;;;;;;16.60;99.90;;;;;;8227687;28;20745;-83
2023/05/17 11:28:47;;;;;;;;;;;17.50;99.90;;;;;;8227077;28;19914;-82
2023/05/17 11:32:49;;;;;;;;;;;17.70;99.90;;;;;;8237171;28;19910;-81
2023/05/17 11:36:50;;;;;;;;;;;16.10;99.90;;;;;;8223982;28;19985;-83
2023/05/17 11:40:52;;;;;;;;;;;15.90;99.90;;;;;;8222671;28;19980;-84
2023/05/17 11:44:55;;;;;;;;;;;17.10;99.90;;;;;;8226329;28;19938;-84
2023/05/17 11:48:56;;;;;;;;;;;16.30;98.00;;;;;;8235108;28;19922;-81
2023/05/17 11:52:58;;;;;;;;;;;15.30;98.90;;;;;;8220407;28;19918;-82
2023/05/17 11:57:02;;;;;;;;;;;15.80;99.90;;;;;;8221077;28;20012;-83
2023/05/17 12:01:03;;;;;;;;;;;15.10;99.90;;;;;;8206191;28;19914;-82
2023/05/17 12:05:04;;;;;;;;;;;14.70;99.90;;;;;;8214103;28;20303;-81
2023/05/17 12:09:09;;;;;;;;;;;14.40;99.90;;;;;;8235163;28;19921;-83
2023/05/17 12:13:10;;;;;;;;;;;14.60;99.90;;;;;;8207428;28;20063;-82
2023/05/17 12:17:12;;;;;;;;;;;16.70;99.90;;;;;;8217292;28;19928;-82
2023/05/17 12:21:14;;;;;;;;;;;17.40;99.90;;;;;;8226942;28;19989;-83
2023/05/17 12:25:18;;;;;;;;;;;18.10;99.90;;;;;;8211858;28;19914;-83
2023/05/17 12:29:20;;;;;;;;;;;18.90;96.50;;;;;;8224791;28;19914;-83
2023/05/17 12:33:21;;;;;;;;;;;19.60;92.00;;;;;;8211631;28;19957;-83
2023/05/17 12:37:21;;;;;;;;;;;17.40;97.80;;;;;;8219268;28;20298;-83
2023/05/17 12:41:24;;;;;;;;;;;16.00;99.60;;;;;;8228994;28;20441;-83
2023/05/17 12:45:25;;;;;;;;;;;16.20;99.90;;;;;;8230059;28;19914;-82
2023/05/17 12:49:25;;;;;;;;;;;16.60;94.70;;;;;;8233642;28;19969;-82
2023/05/17 12:53:34;;;;;;;;;;;15.40;99.90;;;;;;8220864;28;20125;-82
2023/05/17 12:57:34;;;;;;;;;;;17.00;98.90;;;;;;8218659;28;20339;-83
2023/05/17 13:01:36;;;;;;;;;;;18.20;96.20;;;;;;8221671;28;19969;-83
2023/05/17 13:05:38;;;;;;;;;;;18.20;93.00;;;;;;8222238;28;19926;-83
2023/05/17 13:09:46;;;;;;;;;;;18.70;92.10;;;;;;8221912;28;19911;-82
2023/05/17 13:13:47;;;;;;;;;;;18.00;93.00;;;;;;8223005;28;19960;-81
2023/05/17 13:17:48;;;;;;;;;;;17.70;93.20;;;;;;8230164;28;19914;-82
2023/05/17 13:21:49;;;;;;;;;;;18.40;92.70;;;;;;8229736;28;19921;-81
2023/05/17 13:25:49;;;;;;;;;;;17.60;93.70;;;;;;8229643;28;19924;-82
2023/05/17 13:29:50;;;;;;;;;;;16.70;95.50;;;;;;8230310;28;20012;-82
2023/05/17 13:33:50;;;;;;;;;;;15.70;98.90;;;;;;8226814;28;20068;-82
2023/05/17 13:37:52;;;;;;;;;;;14.80;96.30;;;;;;8230429;28;19914;-82
2023/05/17 13:41:52;;;;;;;;;;;16.00;96.50;;;;;;8232122;28;19925;-82
2023/05/17 13:45:57;;;;;;;;;;;17.60;92.70;;;;;;8226574;28;19914;-79
2023/05/17 13:49:58;;;;;;;;;;;18.90;91.10;;;;;;8220653;28;19922;-81
2023/05/17 13:53:59;;;;;;;;;;;17.90;94.10;;;;;;8228313;28;19914;-83
2023/05/17 13:58:00;;;;;;;;;;;15.80;92.00;;;;;;8221668;28;19914;-81
2023/05/17 14:02:01;;;;;;;;;;;15.00;97.30;;;;;;8235370;28;19972;-82
2023/05/17 14:06:02;;;;;;;;;;;16.30;95.20;;;;;;8220143;28;19921;-82
2023/05/17 14:10:03;;;;;;;;;;;18.10;92.60;;;;;;8229240;28;19910;-81
2023/05/17 14:14:04;;;;;;;;;;;18.00;93.20;;;;;;8222973;28;20505;-80
2023/05/17 14:18:08;;;;;;;;;;;17.60;91.60;;;;;;8237881;28;20371;-82
2023/05/17 14:22:08;;;;;;;;;;;17.40;91.30;;;;;;8222339;28;20012;-81
2023/05/17 14:26:10;;;;;;;;;;;17.70;90.60;;;;;;8228661;28;19914;-82
2023/05/17 14:30:19;;;;;;;;;;;17.50;90.90;;;;;;8211492;28;20005;-83
2023/05/17 14:34:26;;;;;;;;;;;17.10;90.90;;;;;;8266954;23;19930;-82
2023/05/17 14:38:26;;;;;;;;;;;16.30;92.20;;;;;;8216919;28;19914;-83
2023/05/17 14:42:27;;;;;;;;;;;16.00;94.00;;;;;;8226944;28;19922;-82
2023/05/17 14:46:27;;;;;;;;;;;16.60;95.40;;;;;;8210718;28;19969;-82
2023/05/17 14:50:32;;;;;;;;;;;17.00;91.00;;;;;;8197576;28;19918;-83
2023/05/17 14:54:34;;;;;;;;;;;17.30;90.30;;;;;;8306985;23;19931;-83
2023/05/17 14:58:44;;;;;;;;;;;17.80;90.50;;;;;;8226797;28;20343;-83
2023/05/17 15:03:04;;;;;;;;;;;17.00;92.30;;;;;;8189861;28;19926;-84
2023/05/17 15:07:35;;;;;;;;;;;15.60;97.20;;;;;;8217030;23;19927;-83
2023/05/17 15:11:53;;;;;;;;;;;14.80;97.50;;;;;;8164676;29;19922;-83
2023/05/17 15:16:40;;;;;;;;;;;15.70;94.50;;;;;;8169072;29;19915;-82
2023/05/17 15:20:42;;;;;;;;;;;15.40;95.20;;;;;;8166092;29;19985;-83
2023/05/17 15:25:21;;;;;;;;;;;14.80;96.20;;;;;;8163526;29;20021;-83
2023/05/17 15:29:30;;;;;;;;;;;14.50;97.60;;;;;;8165630;29;19923;-83
2023/05/17 15:33:41;;;;;;;;;;;14.40;98.70;;;;;;8162347;29;20455;-82
2023/05/17 15:38:19;;;;;;;;;;;14.50;99.90;;;;;;8162756;29;20391;-83
2023/05/17 15:47:35;;;;;;;;;;;14.80;99.90;;;;;;8167800;29;19917;-82
2023/05/17 15:51:48;;;;;;;;;;;14.30;97.90;;;;;;8164996;29;19934;-83
2023/05/17 15:56:00;;;;;;;;;;;14.20;98.60;;;;;;8160926;29;19911;-83
2023/05/17 16:00:27;;;;;;;;;;;14.20;98.10;;;;;;8173126;29;19911;-83
2023/05/17 16:04:51;;;;;;;;;;;14.20;99.60;;;;;;8164177;29;20335;-83
2023/05/17 16:08:56;;;;;;;;;;;14.20;99.90;;;;;;8149537;29;19918;-84
2023/05/17 16:13:07;;;;;;;;;;;14.20;99.90;;;;;;8159319;29;19922;-83
2023/05/17 16:17:51;;;;;;;;;;;13.60;99.90;;;;;;8166185;29;19945;-83
2023/05/17 16:22:10;;;;;;;;;;;13.50;99.90;;;;;;8169305;29;19961;-84
2023/05/17 16:26:12;;;;;;;;;;;13.40;99.90;;;;;;8167164;29;20548;-83
2023/05/17 16:30:19;;;;;;;;;;;13.10;99.90;;;;;;8169041;29;19914;-83
2023/05/17 16:34:23;;;;;;;;;;;12.80;99.90;;;;;;8167743;29;20278;-83
2023/05/17 16:38:32;;;;;;;;;;;12.80;99.90;;;;;;8168333;29;19926;-83
2023/05/17 16:42:33;;;;;;;;;;;12.90;99.90;;;;;;8156137;29;19942;-82
2023/05/17 16:46:41;;;;;;;;;;;12.70;99.90;;;;;;8170817;29;19911;-83
2023/05/17 16:50:41;;;;;;;;;;;12.30;99.90;;;;;;8174362;29;19915;-82
2023/05/17 16:54:42;;;;;;;;;;;12.20;99.90;;;;;;8172223;29;19919;-83
2023/05/17 16:58:43;;;;;;;;;;;12.00;99.90;;;;;;8168975;29;19911;-83
2023/05/17 17:03:18;;;;;;;;;;;12.00;99.90;;;;;;8173078;29;20367;-82
2023/05/17 17:07:19;;;;;;;;;;;12.00;99.90;;;;;;8153469;29;20332;-83
2023/05/17 17:11:36;;;;;;;;;;;11.90;99.90;;;;;;8173689;29;19915;-82
2023/05/17 17:15:56;;;;;;;;;;;11.80;99.90;;;;;;8173001;29;20375;-82
2023/05/17 17:20:04;;;;;;;;;;;11.50;99.90;;;;;;8166860;29;19918;-83
2023/05/17 17:24:11;;;;;;;;;;;11.50;99.90;;;;;;8174709;29;19915;-83
2023/05/17 17:28:19;;;;;;;;;;;11.40;99.90;;;;;;8174568;29;19921;-83
2023/05/17 17:32:22;;;;;;;;;;;11.40;99.90;;;;;;8154532;29;19920;-83
2023/05/17 17:36:23;;;;;;;;;;;11.40;99.90;;;;;;8158989;29;19917;-83
2023/05/17 17:40:24;;;;;;;;;;;11.20;99.90;;;;;;8166977;29;19915;-82
2023/05/17 17:44:41;;;;;;;;;;;11.00;99.90;;;;;;8167277;29;19915;-82
2023/05/17 17:48:41;;;;;;;;;;;10.80;99.90;;;;;;8165210;29;20002;-82
2023/05/17 17:52:42;;;;;;;;;;;10.70;99.90;;;;;;8151136;29;20300;-82
2023/05/17 17:56:49;;;;;;;;;;;10.50;99.90;;;;;;8165146;29;20332;-82
2023/05/17 18:00:49;;;;;;;;;;;10.20;99.90;;;;;;8157321;29;19911;-83
2023/05/17 18:04:50;;;;;;;;;;;9.90;99.90;;;;;;8160339;29;19950;-82
2023/05/17 18:08:57;;;;;;;;;;;9.90;99.90;;;;;;8157343;29;20706;-82
2023/05/17 18:13:00;;;;;;;;;;;9.80;99.90;;;;;;8168905;29;19911;-83
2023/05/17 18:17:07;;;;;;;;;;;9.60;99.90;;;;;;8164773;29;19915;-83
2023/05/17 18:21:55;;;;;;;;;;;9.50;99.90;;;;;;8157757;29;19950;-83
2023/05/17 18:25:47;;;;;;;;;;;9.30;99.90;;;;;;8164579;29;19921;-83
2023/05/17 18:30:17;;;;;;;;;;;9.20;99.90;;;;;;8151312;29;19919;-83
2023/05/17 18:34:18;;;;;;;;;;;9.00;99.90;;;;;;8153617;29;19921;-83
2023/05/17 18:38:18;;;;;;;;;;;8.80;99.90;;;;;;8166787;29;19915;-83
2023/05/17 18:42:20;;;;;;;;;;;8.70;99.90;;;;;;8169685;29;20367;-83
2023/05/17 18:46:21;;;;;;;;;;;8.60;99.90;;;;;;8173161;29;19915;-83
2023/05/17 18:50:21;;;;;;;;;;;8.40;99.90;;;;;;8158065;29;20005;-83
2023/05/17 18:54:40;;;;;;;;;;;8.40;99.90;;;;;;8157230;29;19962;-84
2023/05/17 18:58:41;;;;;;;;;;;8.20;99.90;;;;;;8153996;29;19930;-83
2023/05/17 19:02:41;;;;;;;;;;;8.10;99.90;;;;;;8154058;29;20013;-83
2023/05/17 19:06:47;;;;;;;;;;;8.00;99.90;;;;;;8165290;29;19970;-83
2023/05/17 19:10:48;;;;;;;;;;;7.80;99.90;;;;;;8168352;29;20379;-84
2023/05/17 19:14:49;;;;;;;;;;;7.40;99.90;;;;;;8147324;29;20005;-83
2023/05/17 19:18:53;;;;;;;;;;;7.10;99.90;;;;;;8160580;29;19919;-84
2023/05/17 19:23:03;;;;;;;;;;;6.80;99.90;;;;;;8169232;29;19914;-83
2023/05/17 19:27:09;;;;;;;;;;;6.80;99.90;;;;;;8163401;29;19918;-84
2023/05/17 19:31:10;;;;;;;;;;;7.00;99.90;;;;;;8168002;29;19923;-84
2023/05/17 19:35:14;;;;;;;;;;;7.20;99.90;;;;;;8146972;29;20642;-84
2023/05/17 19:39:17;;;;;;;;;;;7.20;99.90;;;;;;8158669;29;20586;-83
2023/05/17 19:43:17;;;;;;;;;;;7.10;99.90;;;;;;8162321;29;19921;-84
2023/05/17 19:47:20;;;;;;;;;;;7.00;99.90;;;;;;8155046;29;19915;-83
2023/05/17 19:51:22;;;;;;;;;;;7.00;99.90;;;;;;8153927;29;19914;-83
2023/05/17 19:55:28;;;;;;;;;;;6.90;99.90;;;;;;8151333;29;20399;-83
2023/05/17 19:59:29;;;;;;;;;;;6.70;99.90;;;;;;8164873;29;19915;-83
2023/05/17 20:03:30;;;;;;;;;;;6.40;99.90;;;;;;8146175;29;20002;-84
2023/05/17 20:07:36;;;;;;;;;;;6.30;99.90;;;;;;8159711;29;20014;-84
2023/05/17 20:11:42;;;;;;;;;;;6.30;99.90;;;;;;8167386;29;19918;-83
2023/05/17 20:15:43;;;;;;;;;;;6.30;99.90;;;;;;8167634;29;19921;-83
2023/05/17 20:19:46;;;;;;;;;;;6.20;99.90;;;;;;8154210;29;19915;-83
2023/05/17 20:23:55;;;;;;;;;;;6.00;99.90;;;;;;8166416;29;19903;-83
2023/05/17 20:27:55;;;;;;;;;;;5.90;99.90;;;;;;8196726;29;19938;-83
2023/05/17 20:31:59;;;;;;;;;;;5.80;99.90;;;;;;8163146;29;19970;-84
2023/05/17 20:36:06;;;;;;;;;;;5.50;99.90;;;;;;8166127;29;19914;-84
2023/05/17 20:40:07;;;;;;;;;;;5.20;99.90;;;;;;8172397;29;19921;-84
2023/05/17 20:44:08;;;;;;;;;;;5.20;99.90;;;;;;8164818;29;19923;-84
2023/05/17 20:48:12;;;;;;;;;;;5.30;99.90;;;;;;8169156;29;19917;-84
2023/05/17 20:52:12;;;;;;;;;;;5.40;99.90;;;;;;8169804;29;19931;-84
2023/05/17 20:56:35;;;;;;;;;;;5.30;99.90;;;;;;8167010;29;20045;-84
2023/05/17 21:00:51;;;;;;;;;;;5.30;99.90;;;;;;8172521;29;19930;-84
2023/05/17 21:04:53;;;;;;;;;;;5.10;99.90;;;;;;8151807;29;19934;-84
2023/05/17 21:09:01;;;;;;;;;;;4.80;99.90;;;;;;8160570;29;19962;-84
2023/05/17 21:13:01;;;;;;;;;;;4.80;99.90;;;;;;8172217;29;19915;-84
2023/05/17 21:17:05;;;;;;;;;;;4.70;99.90;;;;;;8152961;29;19919;-84
2023/05/17 21:21:14;;;;;;;;;;;4.70;99.90;;;;;;8172459;28;20035;-84
2023/05/17 21:25:18;;;;;;;;;;;4.70;99.90;;;;;;8169616;29;19926;-84
2023/05/17 21:29:18;;;;;;;;;;;4.80;99.90;;;;;;8168922;29;19918;-83
2023/05/17 21:33:19;;;;;;;;;;;4.80;99.90;;;;;;8158818;29;19989;-83
2023/05/17 21:37:20;;;;;;;;;;;4.70;99.90;;;;;;8174993;29;19922;-84
2023/05/17 21:41:21;;;;;;;;;;;4.60;99.90;;;;;;8155821;29;19958;-83
2023/05/17 21:45:21;;;;;;;;;;;4.30;99.90;;;;;;8170868;29;19915;-84
2023/05/17 21:49:25;;;;;;;;;;;4.40;99.90;;;;;;8169865;29;19957;-84
2023/05/17 21:53:34;;;;;;;;;;;4.30;99.90;;;;;;8170314;29;19911;-84
2023/05/17 21:57:51;;;;;;;;;;;4.20;99.90;;;;;;8170338;29;20288;-84
2023/05/17 22:01:56;;;;;;;;;;;4.10;99.90;;;;;;8159252;29;20422;-84
2023/05/17 22:05:56;;;;;;;;;;;4.20;99.90;;;;;;8159879;29;19919;-84
2023/05/17 22:09:57;;;;;;;;;;;4.10;99.90;;;;;;8155443;29;19914;-84
2023/05/17 22:13:58;;;;;;;;;;;3.90;99.90;;;;;;8170652;29;19915;-84
2023/05/17 22:18:05;;;;;;;;;;;3.90;99.90;;;;;;8161688;29;19915;-84
2023/05/17 22:22:06;;;;;;;;;;;3.90;99.90;;;;;;8165716;29;20403;-84
2023/05/17 22:26:09;;;;;;;;;;;3.80;99.90;;;;;;8156832;29;19915;-84
2023/05/17 22:30:12;;;;;;;;;;;3.80;99.90;;;;;;8157762;29;19918;-84
2023/05/17 22:34:12;;;;;;;;;;;3.90;99.90;;;;;;8169711;29;19917;-84
2023/05/17 22:38:16;;;;;;;;;;;3.80;99.90;;;;;;8153487;29;19911;-84
2023/05/17 22:42:25;;;;;;;;;;;3.60;99.90;;;;;;8169630;29;19946;-84
2023/05/17 22:46:40;;;;;;;;;;;3.60;99.90;;;;;;8156594;29;19915;-84
2023/05/17 22:50:41;;;;;;;;;;;3.50;99.90;;;;;;8153980;29;20356;-84
2023/05/17 22:54:44;;;;;;;;;;;3.50;99.90;;;;;;8153015;29;19993;-84
2023/05/17 22:58:48;;;;;;;;;;;3.40;99.90;;;;;;8153205;29;19938;-84
2023/05/17 23:02:48;;;;;;;;;;;3.30;99.90;;;;;;8153062;29;19970;-84
2023/05/17 23:06:50;;;;;;;;;;;3.20;99.90;;;;;;8147696;29;19919;-84
2023/05/17 23:15:35;;;;;;;;;;;3.10;99.90;;;;;;8166358;29;20279;-83
2023/05/17 23:19:36;;;;;;;;;;;3.30;99.90;;;;;;8168360;29;19911;-85
2023/05/17 23:23:39;;;;;;;;;;;3.40;99.90;;;;;;8151562;29;19958;-84
2023/05/17 23:27:43;;;;;;;;;;;3.30;99.90;;;;;;8167973;29;19911;-84
2023/05/17 23:31:49;;;;;;;;;;;3.20;99.90;;;;;;8145771;29;19915;-84
2023/05/17 23:35:52;;;;;;;;;;;3.30;99.90;;;;;;8172131;29;19961;-84
2023/05/17 23:39:53;;;;;;;;;;;3.10;99.90;;;;;;8165582;29;19918;-84
2023/05/17 23:43:55;;;;;;;;;;;3.10;99.90;;;;;;8160893;29;20030;-84
2023/05/17 23:48:02;;;;;;;;;;;2.90;99.90;;;;;;8164248;29;20432;-84
2023/05/17 23:52:12;;;;;;;;;;;2.80;99.90;;;;;;8151833;29;19919;-84
2023/05/17 23:56:38;;;;;;;;;;;2.90;99.90;;;;;;8170555;29;19970;-84
